createdAt,value
2019-01-10T00:04:13.164Z,-0.40
2019-01-10T00:09:20.377Z,-0.30
2019-01-10T00:14:30.592Z,-0.20
2019-01-10T00:19:37.369Z,-0.20
2019-01-10T00:24:43.567Z,-0.30
2019-01-10T00:29:49.283Z,-0.30
2019-01-10T00:34:55.560Z,-0.20
2019-01-10T00:40:01.570Z,-0.20
2019-01-10T00:45:10.073Z,-0.30
2019-01-10T00:50:20.589Z,-0.40
2019-01-10T00:55:26.554Z,-0.40
2019-01-10T01:00:32.668Z,-0.50
2019-01-10T01:05:39.506Z,-0.60
2019-01-10T01:10:47.396Z,-0.70
2019-01-10T01:15:53.832Z,-0.80
2019-01-10T01:21:01.053Z,-0.70
2019-01-10T01:26:08.429Z,-0.70
2019-01-10T01:31:15.670Z,-0.70
2019-01-10T01:36:22.471Z,-0.50
2019-01-10T01:41:29.534Z,-0.40
2019-01-10T01:46:36.831Z,-0.40
2019-01-10T01:51:43.752Z,-0.40
2019-01-10T01:56:49.734Z,-0.20
2019-01-10T02:01:57.275Z,-0.30
2019-01-10T02:07:04.186Z,-0.40
2019-01-10T02:12:12.804Z,-0.40
2019-01-10T02:17:20.252Z,-0.40
2019-01-10T02:22:27.977Z,-0.40
2019-01-10T02:27:36.703Z,-0.40
2019-01-10T02:32:43.856Z,-0.70
2019-01-10T02:37:50.991Z,-0.80
2019-01-10T02:42:56.989Z,-0.90
2019-01-10T02:48:06.130Z,-0.90
2019-01-10T02:53:13.118Z,-1.00
2019-01-10T02:58:19.665Z,-1.10
2019-01-10T03:03:26.363Z,-1.00
2019-01-10T03:08:34.142Z,-1.00
2019-01-10T03:13:41.542Z,-1.00
2019-01-10T03:18:47.651Z,-0.90
2019-01-10T03:23:53.543Z,-0.80
2019-01-10T03:29:00.764Z,-0.80
2019-01-10T03:34:08.127Z,-0.80
2019-01-10T03:39:15.094Z,-0.70
2019-01-10T03:44:22.026Z,-0.70
2019-01-10T03:49:28.451Z,-0.70
2019-01-10T03:54:35.474Z,-0.70
2019-01-10T03:59:42.375Z,-0.70
2019-01-10T04:04:49.483Z,-0.70
2019-01-10T04:09:56.274Z,-0.70
2019-01-10T04:15:02.217Z,-0.70
2019-01-10T04:20:09.128Z,-0.70
2019-01-10T04:25:15.654Z,-0.70
2019-01-10T04:30:22.416Z,-0.60
2019-01-10T04:35:30.922Z,-0.60
2019-01-10T04:40:37.824Z,-0.50
2019-01-10T04:45:45.962Z,-0.50
2019-01-10T04:50:52.717Z,-0.50
2019-01-10T04:55:59.714Z,-0.50
2019-01-10T05:01:07.239Z,-0.50
2019-01-10T05:06:14.553Z,-0.60
2019-01-10T05:11:20.800Z,-0.70
2019-01-10T05:16:29.680Z,-0.80
2019-01-10T05:21:37.022Z,-0.80
2019-01-10T05:26:44.025Z,-0.80
2019-01-10T05:31:51.250Z,-0.80
2019-01-10T05:36:59.441Z,-0.90
2019-01-10T05:42:05.700Z,-0.90
2019-01-10T05:47:11.428Z,-0.90
2019-01-10T05:52:18.310Z,-0.80
2019-01-10T05:57:25.718Z,-0.70
2019-01-10T06:02:33.702Z,-0.60
2019-01-10T06:07:40.670Z,-0.70
2019-01-10T06:12:49.143Z,-0.70
2019-01-10T06:18:15.270Z,-0.70
2019-01-10T06:23:21.370Z,-0.70
2019-01-10T06:28:28.673Z,-0.70
2019-01-10T06:33:34.925Z,-0.70
2019-01-10T06:38:43.626Z,-0.80
2019-01-10T06:43:51.848Z,-0.70
2019-01-10T06:48:58.573Z,-0.70
2019-01-10T06:54:05.568Z,-0.80
2019-01-10T06:59:12.331Z,-0.80
2019-01-10T07:04:25.450Z,-0.80
2019-01-10T07:09:32.556Z,-0.80
2019-01-10T07:14:39.639Z,-0.80
2019-01-10T07:19:47.243Z,-0.80
2019-01-10T07:24:55.242Z,-0.80
2019-01-10T07:30:01.682Z,-0.70
2019-01-10T07:35:11.744Z,-0.60
2019-01-10T07:40:22.425Z,-0.50
2019-01-10T07:45:35.007Z,-0.60
2019-01-10T07:50:44.669Z,-0.60
2019-01-10T07:55:52.390Z,-0.50
2019-01-10T08:01:01.559Z,-0.50
2019-01-10T08:06:08.749Z,-0.40
2019-01-10T08:11:19.450Z,-0.30
2019-01-10T08:16:28.918Z,-0.30
2019-01-10T08:21:38.320Z,-0.20
2019-01-10T08:26:44.961Z,-0.20
2019-01-10T08:31:52.082Z,-0.20
2019-01-10T08:36:59.114Z,-0.20
2019-01-10T08:42:06.331Z,-0.30
2019-01-10T08:47:12.904Z,-0.20
2019-01-10T08:52:21.365Z,-0.20
2019-01-10T08:57:28.857Z,-0.10
2019-01-10T09:02:36.367Z,0.00
2019-01-10T09:07:42.757Z,0.10
2019-01-10T09:12:50.963Z,0.20
2019-01-10T09:17:56.895Z,0.10
2019-01-10T09:23:03.211Z,0.10
2019-01-10T09:28:10.230Z,0.20
2019-01-10T09:33:18.075Z,0.20
2019-01-10T09:38:26.338Z,0.40
2019-01-10T09:43:33.909Z,0.40
2019-01-10T09:48:40.663Z,0.50
2019-01-10T09:53:47.131Z,0.60
2019-01-10T09:58:54.222Z,0.70
2019-01-10T10:04:01.263Z,0.70
2019-01-10T10:09:09.400Z,0.80
2019-01-10T10:14:15.835Z,0.70
2019-01-10T10:19:22.422Z,0.90
2019-01-10T10:24:29.003Z,1.00
2019-01-10T10:29:36.020Z,0.90
2019-01-10T10:34:42.989Z,1.00
2019-01-10T10:39:50.254Z,1.00
2019-01-10T10:44:56.247Z,1.00
2019-01-10T10:50:02.652Z,1.10
2019-01-10T10:55:15.090Z,1.20
2019-01-10T11:00:26.202Z,1.10
2019-01-10T11:05:35.413Z,1.10
2019-01-10T11:10:42.317Z,1.20
2019-01-10T11:15:49.767Z,1.40
2019-01-10T11:20:55.782Z,1.50
2019-01-10T11:26:02.134Z,1.50
2019-01-10T11:31:09.151Z,1.50
2019-01-10T11:36:15.640Z,1.50
2019-01-10T11:41:23.072Z,1.50
2019-01-10T11:46:30.581Z,1.60
2019-01-10T11:51:36.744Z,1.70
2019-01-10T11:56:43.969Z,1.90
2019-01-10T12:01:50.771Z,1.60
2019-01-10T12:06:58.596Z,1.70
2019-01-10T12:12:07.398Z,1.60
2019-01-10T12:17:13.989Z,1.70
2019-01-10T12:22:20.172Z,1.70
2019-01-10T12:27:26.668Z,1.60
2019-01-10T12:32:32.475Z,1.60
2019-01-10T12:37:39.968Z,1.60
2019-01-10T12:42:48.212Z,1.60
2019-01-10T12:47:54.920Z,1.40
2019-01-10T12:53:04.960Z,1.60
2019-01-10T12:58:11.456Z,1.70
2019-01-10T13:03:17.503Z,1.60
2019-01-10T13:08:24.427Z,1.30
2019-01-10T13:13:31.403Z,1.00
2019-01-10T13:18:38.309Z,1.00
2019-01-10T13:23:45.359Z,1.00
2019-01-10T13:28:52.554Z,1.00
2019-01-10T13:34:01.182Z,1.10
2019-01-10T13:39:09.911Z,1.30
2019-01-10T13:44:16.882Z,1.40
2019-01-10T13:49:24.172Z,1.20
2019-01-10T13:54:31.115Z,1.30
2019-01-10T13:59:37.788Z,1.20
2019-01-10T14:04:45.180Z,1.20
2019-01-10T14:09:51.725Z,1.20
2019-01-10T14:14:58.603Z,1.30
2019-01-10T14:20:08.241Z,1.30
2019-01-10T14:25:16.188Z,1.30
2019-01-10T14:30:27.929Z,1.20
2019-01-10T14:35:35.634Z,1.20
2019-01-10T14:40:43.669Z,1.20
2019-01-10T14:45:51.038Z,1.20
2019-01-10T14:50:58.786Z,1.30
2019-01-10T14:56:04.964Z,1.10
2019-01-10T15:01:10.633Z,1.10
2019-01-10T15:06:19.495Z,1.10
2019-01-10T15:11:25.744Z,1.00
2019-01-10T15:16:32.764Z,0.90
2019-01-10T15:21:38.797Z,0.80
2019-01-10T15:26:45.774Z,0.70
2019-01-10T15:31:52.874Z,0.70
2019-01-10T15:36:59.399Z,0.70
2019-01-10T15:42:07.667Z,0.70
2019-01-10T15:47:19.794Z,0.70
2019-01-10T15:52:24.012Z,0.70
2019-01-10T15:57:30.411Z,0.50
2019-01-10T16:02:37.742Z,0.70
2019-01-10T16:07:44.251Z,0.60
2019-01-10T16:12:51.491Z,0.50
2019-01-10T16:17:59.171Z,0.60
2019-01-10T16:23:05.607Z,0.50
2019-01-10T16:28:12.488Z,0.40
2019-01-10T16:33:18.648Z,0.40
2019-01-10T16:38:43.636Z,0.40
2019-01-10T16:43:52.617Z,0.40
2019-01-10T16:48:59.957Z,0.40
2019-01-10T16:54:06.021Z,0.50
2019-01-10T16:59:12.634Z,0.40
2019-01-10T17:04:20.158Z,0.40
2019-01-10T17:09:27.382Z,0.40
2019-01-10T17:14:34.980Z,0.40
2019-01-10T17:19:42.136Z,0.40
2019-01-10T17:24:49.596Z,0.40
2019-01-10T17:29:58.164Z,0.30
2019-01-10T17:35:06.602Z,0.20
2019-01-10T17:40:15.744Z,0.20
2019-01-10T17:45:25.174Z,0.20
2019-01-10T17:50:33.262Z,0.20
2019-01-10T17:55:44.953Z,0.20
2019-01-10T18:00:52.368Z,0.20
2019-01-10T18:05:59.109Z,0.20
2019-01-10T18:11:08.641Z,0.20
2019-01-10T18:16:15.702Z,0.10
2019-01-10T18:21:23.437Z,0.10
2019-01-10T18:26:29.557Z,0.10
2019-01-10T18:31:37.865Z,0.10
2019-01-10T18:36:45.431Z,0.10
2019-01-10T18:41:53.437Z,0.10
2019-01-10T18:46:59.315Z,0.10
2019-01-10T18:52:07.269Z,0.10
2019-01-10T18:57:14.577Z,0.20
2019-01-10T19:02:22.161Z,0.20
2019-01-10T19:07:29.397Z,0.20
2019-01-10T19:12:38.976Z,0.20
2019-01-10T19:17:45.277Z,0.10
2019-01-10T19:22:52.302Z,0.10
2019-01-10T19:28:00.084Z,0.10
2019-01-10T19:33:06.678Z,0.10
2019-01-10T19:38:12.492Z,0.00
2019-01-10T19:43:18.269Z,0.00
2019-01-10T19:48:27.355Z,0.00
2019-01-10T19:53:34.052Z,0.00
2019-01-10T19:58:40.820Z,-0.10
2019-01-10T20:03:47.636Z,-0.10
2019-01-10T20:08:54.931Z,-0.10
2019-01-10T20:14:03.812Z,-0.20
2019-01-10T20:19:09.548Z,-0.10
2019-01-10T20:24:18.580Z,-0.20
2019-01-10T20:29:25.248Z,-0.20
2019-01-10T20:34:32.166Z,-0.10
2019-01-10T20:39:39.126Z,-0.20
2019-01-10T20:44:46.795Z,-0.20
2019-01-10T20:49:53.663Z,-0.20
2019-01-10T20:55:00.501Z,-0.20
2019-01-10T21:00:09.396Z,-0.20
2019-01-10T21:05:15.178Z,-0.30
2019-01-10T21:10:21.140Z,-0.40
2019-01-10T21:15:29.907Z,-0.40
2019-01-10T21:20:39.913Z,-0.40
2019-01-10T21:25:47.128Z,-0.40
2019-01-10T21:30:54.232Z,-0.40
2019-01-10T21:36:01.662Z,-0.40
2019-01-10T21:41:28.805Z,-0.40
2019-01-10T21:46:35.620Z,-0.40
2019-01-10T21:51:42.770Z,-0.50
2019-01-10T21:56:50.198Z,-0.50
2019-01-10T22:01:56.154Z,-0.50
2019-01-10T22:07:02.127Z,-0.50
2019-01-10T22:12:08.496Z,-0.60
2019-01-10T22:17:14.536Z,-0.60
2019-01-10T22:22:21.226Z,-0.50
2019-01-10T22:27:28.134Z,-0.50
2019-01-10T22:32:35.840Z,-0.50
2019-01-10T22:37:42.678Z,-0.40
2019-01-10T22:42:48.831Z,-0.60
2019-01-10T22:47:55.809Z,-0.70
2019-01-10T22:53:15.807Z,-0.80
2019-01-10T22:58:23.351Z,-0.70
2019-01-10T23:03:32.251Z,-0.80
2019-01-10T23:08:45.819Z,-0.80
2019-01-10T23:14:00.930Z,-0.70
2019-01-10T23:19:08.785Z,-0.60
2019-01-10T23:24:19.455Z,-0.60
2019-01-10T23:29:32.981Z,-0.60
2019-01-10T23:34:49.567Z,-0.60
2019-01-10T23:39:57.801Z,-0.70
2019-01-10T23:45:06.739Z,-0.80
2019-01-10T23:50:14.478Z,-0.80
2019-01-10T23:55:21.003Z,-0.70
